createdAt,value
2022-09-30T00:01:40.854Z,3.83
2022-09-30T00:04:13.908Z,3.78
2022-09-30T00:06:41.807Z,3.80
2022-09-30T00:09:11.536Z,3.92
2022-09-30T00:11:40.366Z,3.83
2022-09-30T00:14:12.598Z,3.95
2022-09-30T00:16:40.426Z,4.10
2022-09-30T00:19:08.418Z,3.88
2022-09-30T00:21:36.415Z,3.70
2022-09-30T00:24:05.307Z,5.80
2022-09-30T00:26:34.585Z,3.92
2022-09-30T00:29:03.235Z,4.25
2022-09-30T00:31:33.738Z,4.25
2022-09-30T00:36:46.936Z,4.07
2022-09-30T00:39:16.375Z,4.00
2022-09-30T00:41:45.338Z,4.60
2022-09-30T00:44:45.605Z,4.65
2022-09-30T00:47:22.498Z,4.60
2022-09-30T00:49:51.832Z,4.18
2022-09-30T00:52:20.689Z,3.92
2022-09-30T00:54:48.874Z,4.22
2022-09-30T00:57:17.866Z,4.50
2022-09-30T00:59:49.191Z,3.80
2022-09-30T01:02:16.953Z,3.97
2022-09-30T01:04:46.007Z,4.80
2022-09-30T01:07:15.222Z,3.63
2022-09-30T01:09:44.299Z,4.82
2022-09-30T01:12:15.860Z,3.88
2022-09-30T01:14:47.572Z,3.85
2022-09-30T01:17:29.322Z,4.28
2022-09-30T01:20:10.285Z,4.60
2022-09-30T01:22:44.572Z,3.75
2022-09-30T01:25:11.992Z,4.32
2022-09-30T01:28:17.146Z,3.72
2022-09-30T01:31:18.307Z,3.80
2022-09-30T01:34:05.269Z,4.10
2022-09-30T01:36:38.701Z,3.97
2022-09-30T01:39:34.541Z,4.53
2022-09-30T01:42:18.772Z,4.03
2022-09-30T01:45:10.286Z,3.80
2022-09-30T01:48:16.275Z,3.70
2022-09-30T01:51:15.462Z,3.80
2022-09-30T01:54:06.630Z,3.85
2022-09-30T01:56:47.642Z,4.38
2022-09-30T01:59:31.713Z,3.88
2022-09-30T02:02:06.963Z,4.15
2022-09-30T02:05:10.157Z,4.00
2022-09-30T02:07:43.259Z,4.05
2022-09-30T02:10:22.111Z,4.72
2022-09-30T02:12:57.865Z,4.50
2022-09-30T02:15:31.204Z,4.43
2022-09-30T02:18:19.831Z,4.68
2022-09-30T02:20:52.601Z,4.38
2022-09-30T02:23:26.654Z,4.28
2022-09-30T02:26:07.198Z,4.75
2022-09-30T02:28:39.685Z,5.15
2022-09-30T02:31:11.378Z,4.18
2022-09-30T02:33:56.587Z,4.57
2022-09-30T02:36:39.904Z,4.53
2022-09-30T02:39:13.871Z,4.63
2022-09-30T02:41:50.028Z,4.45
2022-09-30T02:44:19.616Z,5.03
2022-09-30T02:47:15.682Z,4.30
2022-09-30T02:49:43.797Z,4.47
2022-09-30T02:52:52.946Z,4.95
2022-09-30T02:55:23.889Z,4.63
2022-09-30T02:58:16.179Z,4.95
2022-09-30T03:00:43.908Z,4.45
2022-09-30T03:03:35.305Z,4.60
2022-09-30T03:06:03.664Z,5.03
2022-09-30T03:08:31.408Z,5.15
2022-09-30T03:10:59.211Z,4.72
2022-09-30T03:13:48.491Z,4.97
2022-09-30T03:16:18.952Z,5.43
2022-09-30T03:19:16.807Z,5.18
2022-09-30T03:22:06.304Z,5.15
2022-09-30T03:25:11.502Z,4.70
2022-09-30T03:28:17.221Z,4.95
2022-09-30T03:30:57.728Z,5.07
2022-09-30T03:33:48.751Z,5.60
2022-09-30T03:36:47.397Z,5.45
2022-09-30T03:39:17.839Z,5.50
2022-09-30T03:41:52.911Z,5.53
2022-09-30T03:44:45.687Z,5.70
2022-09-30T03:47:17.102Z,5.13
2022-09-30T03:49:52.030Z,5.93
2022-09-30T03:52:20.334Z,5.43
2022-09-30T03:54:54.223Z,5.68
2022-09-30T03:57:21.858Z,6.35
2022-09-30T03:59:49.552Z,5.88
2022-09-30T04:02:17.165Z,6.40
2022-09-30T04:04:44.979Z,5.60
2022-09-30T04:07:12.928Z,6.00
2022-09-30T04:09:41.086Z,6.28
2022-09-30T04:12:09.711Z,6.57
2022-09-30T04:14:37.761Z,5.90
2022-09-30T04:17:06.261Z,6.30
2022-09-30T04:19:38.256Z,6.15
2022-09-30T04:22:07.502Z,6.68
2022-09-30T04:24:35.654Z,6.93
2022-09-30T04:27:03.655Z,6.97
2022-09-30T04:29:31.474Z,7.03
2022-09-30T04:31:59.013Z,7.97
2022-09-30T04:34:26.739Z,8.70
2022-09-30T04:36:54.386Z,8.13
2022-09-30T04:39:21.973Z,8.23
2022-09-30T04:41:50.542Z,10.35
2022-09-30T04:44:18.515Z,9.13
2022-09-30T04:46:46.062Z,10.15
2022-09-30T04:49:13.697Z,10.55
2022-09-30T04:51:44.014Z,10.75
2022-09-30T04:54:11.879Z,10.73
2022-09-30T04:56:39.456Z,11.55
2022-09-30T04:59:07.269Z,12.35
2022-09-30T05:01:35.151Z,12.20
2022-09-30T05:04:03.245Z,11.50
2022-09-30T05:06:31.384Z,12.32
2022-09-30T05:08:58.997Z,11.60
2022-09-30T05:11:27.782Z,11.30
2022-09-30T05:13:55.868Z,9.80
2022-09-30T05:16:23.496Z,10.50
2022-09-30T05:18:51.322Z,10.85
2022-09-30T05:21:20.750Z,10.60
2022-09-30T05:23:48.753Z,10.52
2022-09-30T05:26:16.812Z,9.82
2022-09-30T05:28:44.420Z,9.70
2022-09-30T05:31:13.639Z,9.43
2022-09-30T05:33:41.982Z,9.07
2022-09-30T05:36:14.278Z,9.48
2022-09-30T05:38:42.358Z,10.18
2022-09-30T05:41:11.976Z,9.27
2022-09-30T05:43:41.178Z,9.73
2022-09-30T05:46:08.865Z,10.88
2022-09-30T05:48:36.731Z,9.13
2022-09-30T05:51:04.740Z,9.63
2022-09-30T05:53:32.490Z,8.85
2022-09-30T05:56:00.627Z,9.35
2022-09-30T05:58:28.504Z,9.85
2022-09-30T06:00:56.436Z,8.98
2022-09-30T06:03:24.651Z,10.07
2022-09-30T06:05:58.774Z,9.75
2022-09-30T06:08:26.572Z,10.50
2022-09-30T06:10:54.406Z,9.13
2022-09-30T06:13:22.236Z,9.75
2022-09-30T06:16:00.712Z,10.63
2022-09-30T06:18:29.254Z,10.52
2022-09-30T06:20:58.284Z,9.10
2022-09-30T06:23:26.651Z,10.32
2022-09-30T06:25:55.220Z,10.27
2022-09-30T06:28:23.575Z,9.57
2022-09-30T06:30:51.359Z,9.50
2022-09-30T06:33:19.455Z,9.20
2022-09-30T06:35:47.739Z,9.35
2022-09-30T06:38:15.928Z,9.90
2022-09-30T06:40:50.506Z,8.38
2022-09-30T06:43:18.219Z,7.07
2022-09-30T06:45:47.818Z,7.78
2022-09-30T06:48:20.816Z,7.60
2022-09-30T06:51:01.978Z,7.65
2022-09-30T06:53:30.455Z,7.38
2022-09-30T06:55:58.610Z,6.93
2022-09-30T06:58:26.281Z,6.22
2022-09-30T07:01:03.758Z,7.07
2022-09-30T07:03:34.500Z,7.43
2022-09-30T07:06:04.722Z,7.30
2022-09-30T07:08:35.364Z,7.05
2022-09-30T07:11:05.827Z,7.03
2022-09-30T07:16:01.499Z,8.18
2022-09-30T07:18:29.092Z,7.35
2022-09-30T07:20:57.151Z,7.13
2022-09-30T07:23:28.028Z,8.70
2022-09-30T07:25:58.891Z,7.47
2022-09-30T07:28:32.064Z,6.82
2022-09-30T07:31:27.957Z,7.80
2022-09-30T07:33:51.860Z,7.50
2022-09-30T07:36:31.776Z,7.95
2022-09-30T07:39:08.274Z,8.18
2022-09-30T07:41:39.050Z,8.38
2022-09-30T07:44:14.548Z,7.10
2022-09-30T07:46:43.315Z,8.10
2022-09-30T07:49:24.750Z,8.93
2022-09-30T07:51:58.544Z,8.27
2022-09-30T07:54:29.333Z,7.93
2022-09-30T07:57:09.738Z,8.43
2022-09-30T07:59:40.774Z,9.50
2022-09-30T08:02:13.482Z,8.70
2022-09-30T08:04:44.028Z,9.70
2022-09-30T08:07:14.064Z,10.23
2022-09-30T08:09:41.942Z,9.75
2022-09-30T08:12:09.971Z,9.95
2022-09-30T08:14:37.483Z,9.32
2022-09-30T08:17:04.992Z,7.03
2022-09-30T08:19:34.029Z,8.70
2022-09-30T08:24:34.327Z,8.77
2022-09-30T08:27:02.372Z,9.63
2022-09-30T08:32:17.534Z,9.68
2022-09-30T08:34:45.312Z,8.15
2022-09-30T08:37:12.883Z,7.72
2022-09-30T08:39:40.392Z,7.40
2022-09-30T08:42:35.957Z,7.50
2022-09-30T08:45:26.631Z,7.35
2022-09-30T08:48:32.703Z,6.55
2022-09-30T08:51:15.712Z,6.72
2022-09-30T08:53:46.287Z,6.30
2022-09-30T08:56:22.410Z,6.50
2022-09-30T08:58:53.346Z,6.25
2022-09-30T09:01:38.445Z,6.68
2022-09-30T09:04:07.885Z,6.38
2022-09-30T09:06:35.426Z,6.40
2022-09-30T09:09:05.794Z,6.35
2022-09-30T09:11:45.317Z,6.50
2022-09-30T09:14:42.040Z,6.20
2022-09-30T09:17:32.053Z,5.57
2022-09-30T09:20:07.872Z,6.60
2022-09-30T09:22:37.968Z,5.88
2022-09-30T09:25:06.157Z,5.38
2022-09-30T09:27:54.892Z,6.18
2022-09-30T09:30:24.621Z,5.43
2022-09-30T09:33:16.094Z,5.70
2022-09-30T09:36:08.060Z,4.85
2022-09-30T09:39:05.196Z,5.55
2022-09-30T09:41:41.374Z,4.95
2022-09-30T09:44:08.799Z,5.38
2022-09-30T09:46:45.414Z,4.95
2022-09-30T09:52:28.439Z,5.03
2022-09-30T09:54:56.789Z,4.65
2022-09-30T09:57:32.138Z,4.70
2022-09-30T10:00:22.591Z,4.45
2022-09-30T10:03:08.348Z,4.38
2022-09-30T10:05:42.443Z,4.60
2022-09-30T10:08:18.970Z,4.43
2022-09-30T10:13:24.895Z,4.50
2022-09-30T10:15:55.187Z,3.65
2022-09-30T10:18:35.954Z,4.50
2022-09-30T10:21:30.465Z,3.92
2022-09-30T10:23:59.793Z,3.05
2022-09-30T10:26:29.155Z,3.58
2022-09-30T10:29:01.945Z,4.20
2022-09-30T10:31:38.949Z,3.83
2022-09-30T10:34:34.595Z,4.00
2022-09-30T10:37:15.750Z,4.18
2022-09-30T10:39:49.373Z,3.40
2022-09-30T10:42:26.033Z,3.38
2022-09-30T10:45:10.306Z,3.50
2022-09-30T10:47:44.729Z,3.97
2022-09-30T10:50:17.230Z,2.70
2022-09-30T10:52:56.374Z,3.63
2022-09-30T10:55:42.006Z,2.75
2022-09-30T10:58:21.570Z,3.53
2022-09-30T11:01:17.046Z,3.38
2022-09-30T11:04:24.388Z,3.00
2022-09-30T11:06:59.236Z,2.88
2022-09-30T11:09:44.819Z,3.42
2022-09-30T11:12:35.482Z,3.42
2022-09-30T11:15:24.524Z,3.22
2022-09-30T11:18:04.773Z,3.90
2022-09-30T11:20:53.926Z,3.50
2022-09-30T11:23:45.608Z,3.92
2022-09-30T11:26:20.214Z,3.85
2022-09-30T11:28:59.583Z,3.83
2022-09-30T11:31:40.720Z,3.25
2022-09-30T11:34:45.924Z,3.55
2022-09-30T11:37:18.504Z,3.55
2022-09-30T11:39:52.057Z,3.60
2022-09-30T11:42:33.495Z,3.65
2022-09-30T11:45:13.399Z,3.47
2022-09-30T11:48:07.756Z,3.25
2022-09-30T11:50:55.666Z,2.70
2022-09-30T11:54:20.933Z,2.90
2022-09-30T11:57:06.890Z,2.97
2022-09-30T11:59:50.512Z,2.40
2022-09-30T12:02:38.568Z,1.88
2022-09-30T12:05:34.897Z,2.25
2022-09-30T12:08:20.216Z,1.98
2022-09-30T12:11:04.533Z,1.95
2022-09-30T12:13:43.839Z,1.70
2022-09-30T12:16:20.670Z,1.90
2022-09-30T12:18:56.228Z,1.80
2022-09-30T12:21:29.916Z,1.13
2022-09-30T12:24:12.228Z,1.20
2022-09-30T12:26:41.620Z,1.98
2022-09-30T12:29:39.581Z,1.40
2022-09-30T12:32:10.238Z,1.70
2022-09-30T12:34:49.643Z,1.52
2022-09-30T12:37:23.840Z,1.45
2022-09-30T12:40:10.279Z,1.55
2022-09-30T12:42:45.822Z,1.30
2022-09-30T12:45:51.156Z,1.38
2022-09-30T12:48:21.415Z,1.20
2022-09-30T12:50:52.951Z,1.25
2022-09-30T12:53:30.177Z,1.10
2022-09-30T12:56:09.284Z,1.42
2022-09-30T12:58:48.170Z,1.75
2022-09-30T13:04:04.856Z,1.00
2022-09-30T13:06:47.668Z,1.05
2022-09-30T13:09:21.301Z,0.90
2022-09-30T13:12:15.885Z,1.20
2022-09-30T13:14:43.919Z,0.90
2022-09-30T13:17:11.692Z,0.95
2022-09-30T13:19:45.566Z,0.95
2022-09-30T13:22:19.168Z,0.70
2022-09-30T13:25:03.148Z,0.90
2022-09-30T13:28:10.743Z,1.15
2022-09-30T13:30:40.115Z,1.30
2022-09-30T13:33:29.887Z,1.20
2022-09-30T13:38:40.272Z,1.20
2022-09-30T13:41:16.688Z,1.17
2022-09-30T13:44:03.476Z,1.20
2022-09-30T13:47:20.965Z,1.00
2022-09-30T13:50:15.406Z,1.38
2022-09-30T13:52:48.171Z,1.40
2022-09-30T13:55:22.692Z,1.35
2022-09-30T13:58:12.042Z,1.48
2022-09-30T14:00:58.666Z,1.77
2022-09-30T14:03:26.804Z,1.73
2022-09-30T14:06:32.885Z,1.48
2022-09-30T14:09:26.430Z,1.52
2022-09-30T14:12:13.538Z,1.42
2022-09-30T14:14:44.070Z,2.47
2022-09-30T14:17:19.849Z,1.30
2022-09-30T14:19:58.574Z,2.17
2022-09-30T14:22:30.091Z,1.55
2022-09-30T14:24:58.233Z,1.70
2022-09-30T14:28:08.692Z,1.60
2022-09-30T14:30:41.911Z,1.20
2022-09-30T14:33:24.216Z,1.98
2022-09-30T14:35:54.515Z,2.05
2022-09-30T14:38:27.976Z,1.77
2022-09-30T14:41:14.194Z,1.65
2022-09-30T14:43:45.019Z,0.98
2022-09-30T14:46:22.221Z,1.45
2022-09-30T14:48:50.673Z,1.80
2022-09-30T14:51:23.581Z,1.10
2022-09-30T14:54:02.212Z,1.50
2022-09-30T14:56:32.252Z,1.20
2022-09-30T15:01:34.364Z,1.45
2022-09-30T15:04:10.651Z,1.83
2022-09-30T15:06:43.048Z,1.52
2022-09-30T15:09:37.322Z,1.00
2022-09-30T15:12:12.967Z,1.60
2022-09-30T15:14:58.416Z,1.70
2022-09-30T15:17:29.295Z,2.10
2022-09-30T15:19:58.577Z,1.73
2022-09-30T15:22:28.279Z,1.80
2022-09-30T15:24:57.449Z,1.90
2022-09-30T15:27:34.226Z,1.80
2022-09-30T15:30:29.237Z,1.40
2022-09-30T15:33:02.671Z,1.77
2022-09-30T15:35:31.372Z,2.00
2022-09-30T15:38:23.219Z,1.75
2022-09-30T15:41:04.832Z,1.92
2022-09-30T15:43:36.551Z,2.00
2022-09-30T15:46:38.654Z,2.55
2022-09-30T15:49:31.834Z,2.17
2022-09-30T15:52:43.113Z,1.95
2022-09-30T15:55:43.293Z,2.30
2022-09-30T15:58:39.793Z,3.15
2022-09-30T16:01:14.109Z,2.72
2022-09-30T16:03:56.871Z,1.95
2022-09-30T16:06:32.532Z,2.13
2022-09-30T16:09:06.717Z,2.45
2022-09-30T16:11:37.773Z,2.72
2022-09-30T16:14:10.524Z,3.17
2022-09-30T16:16:39.177Z,1.90
2022-09-30T16:19:15.918Z,2.28
2022-09-30T16:21:51.422Z,2.42
2022-09-30T16:24:24.610Z,1.95
2022-09-30T16:26:53.447Z,2.35
2022-09-30T16:29:23.058Z,2.50
2022-09-30T16:31:52.195Z,2.72
2022-09-30T16:34:22.246Z,2.55
2022-09-30T16:36:50.930Z,2.17
2022-09-30T16:39:19.580Z,2.75
2022-09-30T16:41:47.213Z,2.30
2022-09-30T16:44:14.977Z,2.15
2022-09-30T16:46:45.424Z,1.92
2022-09-30T16:49:20.291Z,1.90
2022-09-30T16:51:47.824Z,1.67
2022-09-30T16:54:15.286Z,1.38
2022-09-30T16:56:42.999Z,1.50
2022-09-30T16:59:15.720Z,2.42
2022-09-30T17:01:43.685Z,1.63
2022-09-30T17:04:15.282Z,1.60
2022-09-30T17:06:45.035Z,1.75
2022-09-30T17:09:12.450Z,2.55
2022-09-30T17:11:40.297Z,2.53
2022-09-30T17:14:07.895Z,1.90
2022-09-30T17:16:36.446Z,2.40
2022-09-30T17:19:04.664Z,2.95
2022-09-30T17:21:32.252Z,3.50
2022-09-30T17:23:59.873Z,2.15
2022-09-30T17:26:28.313Z,1.27
2022-09-30T17:29:08.724Z,1.88
2022-09-30T17:31:42.365Z,1.60
2022-09-30T17:34:10.065Z,1.95
2022-09-30T17:36:37.578Z,1.48
2022-09-30T17:39:06.258Z,2.17
2022-09-30T17:41:53.313Z,1.25
2022-09-30T17:44:21.535Z,1.63
2022-09-30T17:46:49.285Z,1.63
2022-09-30T17:49:21.948Z,2.53
2022-09-30T17:51:51.441Z,1.70
2022-09-30T17:54:19.095Z,1.95
2022-09-30T17:56:47.681Z,1.80
2022-09-30T17:59:15.177Z,1.65
2022-09-30T18:01:42.777Z,2.08
2022-09-30T18:04:11.511Z,1.77
2022-09-30T18:06:38.962Z,1.98
2022-09-30T18:09:06.836Z,1.63
2022-09-30T18:11:37.190Z,2.00
2022-09-30T18:14:11.433Z,1.45
2022-09-30T18:16:39.413Z,1.63
2022-09-30T18:19:07.923Z,1.80
2022-09-30T18:21:37.197Z,1.35
2022-09-30T18:24:06.229Z,1.55
2022-09-30T18:26:36.013Z,2.22
2022-09-30T18:29:05.240Z,1.77
2022-09-30T18:31:37.128Z,2.10
2022-09-30T18:34:06.323Z,1.63
2022-09-30T18:36:33.937Z,2.60
2022-09-30T18:39:02.648Z,1.77
2022-09-30T18:41:32.209Z,1.17
2022-09-30T18:44:02.806Z,2.20
2022-09-30T18:46:31.644Z,1.02
2022-09-30T18:48:59.308Z,1.40
2022-09-30T18:51:27.043Z,1.45
2022-09-30T18:53:57.852Z,1.70
2022-09-30T18:56:29.617Z,1.40
2022-09-30T18:58:58.167Z,1.30
2022-09-30T19:01:27.903Z,1.65
2022-09-30T19:03:55.627Z,1.48
2022-09-30T19:06:23.295Z,1.80
2022-09-30T19:08:52.073Z,1.20
2022-09-30T19:11:19.647Z,1.13
2022-09-30T19:13:48.045Z,1.27
2022-09-30T19:16:18.329Z,1.88
2022-09-30T19:21:16.095Z,1.38
2022-09-30T19:23:43.478Z,1.48
2022-09-30T19:26:11.704Z,2.63
2022-09-30T19:28:39.167Z,1.63
2022-09-30T19:31:13.961Z,1.55
2022-09-30T19:33:54.563Z,1.25
2022-09-30T19:36:25.483Z,1.00
2022-09-30T19:39:09.075Z,0.93
2022-09-30T19:41:38.418Z,1.10
2022-09-30T19:44:05.901Z,0.80
2022-09-30T19:46:33.408Z,0.90
2022-09-30T19:49:01.375Z,1.08
2022-09-30T19:51:30.952Z,1.50
2022-09-30T19:54:06.181Z,0.65
2022-09-30T19:56:37.361Z,1.20
2022-09-30T19:59:05.442Z,0.93
2022-09-30T20:01:34.953Z,0.60
2022-09-30T20:04:05.556Z,1.05
2022-09-30T20:06:34.540Z,1.23
2022-09-30T20:09:06.530Z,0.90
2022-09-30T20:11:36.806Z,0.80
2022-09-30T20:14:25.504Z,0.50
2022-09-30T20:16:54.435Z,0.90
2022-09-30T20:19:23.000Z,1.13
2022-09-30T20:21:52.123Z,0.60
2022-09-30T20:24:19.730Z,0.60
2022-09-30T20:26:48.623Z,0.38
2022-09-30T20:29:18.901Z,0.52
2022-09-30T20:34:16.917Z,0.75
2022-09-30T20:36:45.058Z,0.82
2022-09-30T20:39:12.808Z,0.30
2022-09-30T20:41:40.529Z,0.60
2022-09-30T20:44:11.911Z,0.80
2022-09-30T20:46:41.447Z,0.40
2022-09-30T20:49:09.488Z,0.40
2022-09-30T20:51:37.454Z,0.38
2022-09-30T20:54:05.107Z,0.28
2022-09-30T20:57:02.463Z,0.45
2022-09-30T20:59:20.203Z,0.20
2022-09-30T21:01:47.672Z,0.50
2022-09-30T21:04:15.237Z,0.75
2022-09-30T21:06:42.818Z,0.40
2022-09-30T21:09:13.594Z,0.40
2022-09-30T21:11:42.554Z,0.60
2022-09-30T21:14:10.597Z,0.20
2022-09-30T21:16:38.161Z,0.28
2022-09-30T21:19:05.679Z,0.25
2022-09-30T21:21:33.301Z,0.10
2022-09-30T21:24:01.205Z,0.17
2022-09-30T21:26:28.732Z,0.20
2022-09-30T21:28:56.146Z,0.00
2022-09-30T21:31:26.895Z,0.20
2022-09-30T21:33:58.242Z,0.35
2022-09-30T21:36:27.359Z,0.17
2022-09-30T21:39:01.069Z,0.30
2022-09-30T21:41:29.163Z,0.30
2022-09-30T21:43:58.399Z,0.22
2022-09-30T21:46:27.086Z,0.57
2022-09-30T21:49:06.540Z,0.30
2022-09-30T21:51:35.558Z,0.57
2022-09-30T21:54:03.409Z,0.50
2022-09-30T21:56:31.225Z,0.45
2022-09-30T21:58:58.840Z,0.50
2022-09-30T22:01:26.518Z,0.50
2022-09-30T22:03:54.014Z,0.30
2022-09-30T22:06:21.660Z,0.63
2022-09-30T22:08:49.230Z,0.57
2022-09-30T22:11:22.503Z,0.40
2022-09-30T22:13:53.085Z,0.30
2022-09-30T22:16:21.869Z,0.43
2022-09-30T22:19:00.913Z,0.30
2022-09-30T22:21:33.922Z,0.40
2022-09-30T22:24:04.050Z,0.40
2022-09-30T22:26:33.099Z,0.43
2022-09-30T22:29:07.021Z,0.35
2022-09-30T22:31:35.042Z,0.60
2022-09-30T22:34:24.070Z,0.40
2022-09-30T22:37:10.653Z,0.40
2022-09-30T22:39:38.307Z,0.77
2022-09-30T22:42:07.264Z,0.50
2022-09-30T22:44:36.305Z,0.60
2022-09-30T22:47:04.782Z,0.80
2022-09-30T22:49:33.011Z,0.98
2022-09-30T22:52:02.118Z,1.00
2022-09-30T22:54:30.684Z,1.00
2022-09-30T22:57:01.123Z,0.93
2022-09-30T22:59:29.630Z,1.45
2022-09-30T23:02:00.230Z,1.10
2022-09-30T23:04:28.251Z,0.95
2022-09-30T23:06:59.278Z,1.10
2022-09-30T23:09:26.871Z,1.20
2022-09-30T23:11:55.406Z,1.15
2022-09-30T23:14:23.368Z,1.33
2022-09-30T23:16:51.427Z,1.30
2022-09-30T23:19:19.635Z,1.02
2022-09-30T23:21:47.305Z,1.10
2022-09-30T23:24:15.047Z,1.35
2022-09-30T23:26:42.567Z,1.20
2022-09-30T23:29:13.915Z,1.27
2022-09-30T23:31:42.171Z,1.20
2022-09-30T23:34:09.949Z,1.65
2022-09-30T23:36:38.017Z,1.48
2022-09-30T23:39:15.437Z,1.25
2022-09-30T23:41:46.293Z,1.50
2022-09-30T23:44:15.530Z,1.38
2022-09-30T23:47:02.948Z,1.83
2022-09-30T23:49:33.251Z,1.80
2022-09-30T23:54:28.959Z,2.05
2022-09-30T23:56:56.436Z,1.88
2022-09-30T23:59:24.626Z,1.88
